LPPD/PDL METAR and TAF weather

Enter ICAO airport designator
Station Type Date Time Source
LPPD METAR 2019/08/24 09:00 UTC NOAA

LPPD 240900Z 03010KT 010V070 9999 -SHRA FEW006 23/22 Q1021


Station Type Date Time Source
LPPD Decoded METAR 2019/08/24 09:00 UTC NOAA

Station name not available
Aug 24, 2019 - 05:00 AM EDT / 2019.08.24 0900 UTC
Wind: from the NNE (030 degrees) at 12 MPH (10 KT) (direction variable):0
Visibility: greater than 7 mile(s):0
Sky conditions: mostly clear
Weather: light rain showers
Temperature: 73 F (23 C)
Dew Point: 71 F (22 C)
Relative Humidity: 94%
Pressure (altimeter): 30.15 in. Hg (1021 hPa)
ob: LPPD 240900Z 03010KT 010V070 9999 -SHRA FEW006 23/22 Q1021
cycle: 9

Station Type Date Time Source
LPPD TAF 2019/08/24 06:18 UTC NOAA

TAF LPPD 240500Z 2406/2506 03005KT 9999 FEW012 SCT030
TEMPO 2406/2506 5000 DZRA SCT005 BKN010
BECMG 2409/2412 03015KT PROB30
TEMPO 2412/2420 12010KT

Example: see airport list